sensor_id;sensor_type;location;lat;lon;timestamp;temperature;humidity
14099;DHT22;7126;48.458;7.930;2022-12-17T00:00:23;-4.00;99.90
14099;DHT22;7126;48.458;7.930;2022-12-17T00:03:09;-4.10;99.90
14099;DHT22;7126;48.458;7.930;2022-12-17T00:05:54;-4.20;99.90
14099;DHT22;7126;48.458;7.930;2022-12-17T00:08:38;-4.20;99.90
14099;DHT22;7126;48.458;7.930;2022-12-17T00:11:22;-4.30;99.90
14099;DHT22;7126;48.458;7.930;2022-12-17T00:14:06;-4.50;99.90
14099;DHT22;7126;48.458;7.930;2022-12-17T00:16:51;-4.60;99.90
14099;DHT22;7126;48.458;7.930;2022-12-17T00:19:35;-4.60;99.90
14099;DHT22;7126;48.458;7.930;2022-12-17T00:22:19;-4.50;99.90
14099;DHT22;7126;48.458;7.930;2022-12-17T00:25:04;-4.30;99.90
14099;DHT22;7126;48.458;7.930;2022-12-17T00:27:48;-4.30;99.90
14099;DHT22;7126;48.458;7.930;2022-12-17T00:30:32;-4.40;99.90
14099;DHT22;7126;48.458;7.930;2022-12-17T00:33:16;-4.50;99.90
14099;DHT22;7126;48.458;7.930;2022-12-17T00:36:00;-4.60;99.90
14099;DHT22;7126;48.458;7.930;2022-12-17T00:38:45;-4.50;99.90
14099;DHT22;7126;48.458;7.930;2022-12-17T00:41:28;-4.50;99.90
14099;DHT22;7126;48.458;7.930;2022-12-17T00:44:12;-4.50;99.90
14099;DHT22;7126;48.458;7.930;2022-12-17T00:46:57;-4.50;99.90
14099;DHT22;7126;48.458;7.930;2022-12-17T00:49:42;-4.40;99.90
14099;DHT22;7126;48.458;7.930;2022-12-17T00:52:26;-4.20;99.90
14099;DHT22;7126;48.458;7.930;2022-12-17T00:55:11;-4.20;99.90
14099;DHT22;7126;48.458;7.930;2022-12-17T00:57:56;-4.40;99.90
14099;DHT22;7126;48.458;7.930;2022-12-17T01:00:40;-4.40;99.90
14099;DHT22;7126;48.458;7.930;2022-12-17T01:03:25;-4.30;99.90
14099;DHT22;7126;48.458;7.930;2022-12-17T01:06:09;-4.10;99.90
14099;DHT22;7126;48.458;7.930;2022-12-17T01:08:54;-4.00;99.90
14099;DHT22;7126;48.458;7.930;2022-12-17T01:11:38;-3.80;99.90
14099;DHT22;7126;48.458;7.930;2022-12-17T01:14:22;-3.70;99.90
14099;DHT22;7126;48.458;7.930;2022-12-17T01:17:07;-3.60;99.90
14099;DHT22;7126;48.458;7.930;2022-12-17T01:19:51;-3.60;99.90
14099;DHT22;7126;48.458;7.930;2022-12-17T01:22:35;-3.60;99.90
14099;DHT22;7126;48.458;7.930;2022-12-17T01:25:19;-3.40;99.90
14099;DHT22;7126;48.458;7.930;2022-12-17T01:28:03;-3.40;99.90
14099;DHT22;7126;48.458;7.930;2022-12-17T01:30:48;-3.30;99.90
14099;DHT22;7126;48.458;7.930;2022-12-17T01:33:31;-3.30;99.90
14099;DHT22;7126;48.458;7.930;2022-12-17T01:36:15;-3.30;99.90
14099;DHT22;7126;48.458;7.930;2022-12-17T01:39:00;-3.20;99.90
14099;DHT22;7126;48.458;7.930;2022-12-17T01:41:44;-3.10;99.90
14099;DHT22;7126;48.458;7.930;2022-12-17T01:44:48;-3.10;99.90
14099;DHT22;7126;48.458;7.930;2022-12-17T01:48:21;-3.00;99.90
14099;DHT22;7126;48.458;7.930;2022-12-17T01:50:58;-3.10;99.90
14099;DHT22;7126;48.458;7.930;2022-12-17T01:53:51;-3.00;99.90
14099;DHT22;7126;48.458;7.930;2022-12-17T01:56:37;-3.00;99.90
14099;DHT22;7126;48.458;7.930;2022-12-17T01:59:37;-3.00;99.90
14099;DHT22;7126;48.458;7.930;2022-12-17T02:02:24;-2.90;99.90
14099;DHT22;7126;48.458;7.930;2022-12-17T02:05:08;-2.90;99.90
14099;DHT22;7126;48.458;7.930;2022-12-17T02:08:06;-3.00;99.90
14099;DHT22;7126;48.458;7.930;2022-12-17T02:11:21;-3.00;99.90
14099;DHT22;7126;48.458;7.930;2022-12-17T02:14:27;-3.00;99.90
14099;DHT22;7126;48.458;7.930;2022-12-17T02:17:16;-2.90;99.90
14099;DHT22;7126;48.458;7.930;2022-12-17T02:20:13;-2.70;99.90
14099;DHT22;7126;48.458;7.930;2022-12-17T02:23:55;-2.60;99.90
14099;DHT22;7126;48.458;7.930;2022-12-17T02:26:39;-2.60;99.90
14099;DHT22;7126;48.458;7.930;2022-12-17T02:29:27;-2.60;99.90
14099;DHT22;7126;48.458;7.930;2022-12-17T02:32:13;-2.60;99.90
14099;DHT22;7126;48.458;7.930;2022-12-17T02:34:59;-2.50;99.90
14099;DHT22;7126;48.458;7.930;2022-12-17T02:37:47;-2.60;99.90
14099;DHT22;7126;48.458;7.930;2022-12-17T02:40:32;-2.70;99.90
14099;DHT22;7126;48.458;7.930;2022-12-17T02:43:18;-2.80;99.90
14099;DHT22;7126;48.458;7.930;2022-12-17T02:46:03;-2.80;99.90
14099;DHT22;7126;48.458;7.930;2022-12-17T02:48:48;-2.70;99.90
14099;DHT22;7126;48.458;7.930;2022-12-17T02:51:32;-2.70;99.90
14099;DHT22;7126;48.458;7.930;2022-12-17T02:54:17;-2.60;99.90
14099;DHT22;7126;48.458;7.930;2022-12-17T02:57:01;-2.60;99.90
14099;DHT22;7126;48.458;7.930;2022-12-17T02:59:45;-2.80;99.90
14099;DHT22;7126;48.458;7.930;2022-12-17T03:02:29;-2.80;99.90
14099;DHT22;7126;48.458;7.930;2022-12-17T03:05:32;-2.70;99.90
14099;DHT22;7126;48.458;7.930;2022-12-17T03:08:17;-2.90;99.90
14099;DHT22;7126;48.458;7.930;2022-12-17T03:11:01;-2.90;99.90
14099;DHT22;7126;48.458;7.930;2022-12-17T03:13:45;-2.90;99.90
14099;DHT22;7126;48.458;7.930;2022-12-17T03:16:29;-3.00;99.90
14099;DHT22;7126;48.458;7.930;2022-12-17T03:19:13;-2.80;99.90
14099;DHT22;7126;48.458;7.930;2022-12-17T03:21:57;-2.90;99.90
14099;DHT22;7126;48.458;7.930;2022-12-17T03:24:41;-2.90;99.90
14099;DHT22;7126;48.458;7.930;2022-12-17T03:27:25;-2.80;99.90
14099;DHT22;7126;48.458;7.930;2022-12-17T03:30:10;-2.90;99.90
14099;DHT22;7126;48.458;7.930;2022-12-17T03:32:54;-2.90;99.90
14099;DHT22;7126;48.458;7.930;2022-12-17T03:35:39;-2.90;99.90
14099;DHT22;7126;48.458;7.930;2022-12-17T03:38:23;-2.80;99.90
14099;DHT22;7126;48.458;7.930;2022-12-17T03:41:07;-2.90;99.90
14099;DHT22;7126;48.458;7.930;2022-12-17T03:43:50;-2.80;99.90
14099;DHT22;7126;48.458;7.930;2022-12-17T03:46:35;-2.80;99.90
14099;DHT22;7126;48.458;7.930;2022-12-17T03:49:19;-2.80;99.90
14099;DHT22;7126;48.458;7.930;2022-12-17T03:52:03;-2.80;99.90
14099;DHT22;7126;48.458;7.930;2022-12-17T03:54:47;-2.90;99.90
14099;DHT22;7126;48.458;7.930;2022-12-17T03:57:31;-2.90;99.90
14099;DHT22;7126;48.458;7.930;2022-12-17T04:00:15;-2.90;99.90
14099;DHT22;7126;48.458;7.930;2022-12-17T04:02:59;-2.80;99.90
14099;DHT22;7126;48.458;7.930;2022-12-17T04:05:43;-2.80;99.90
14099;DHT22;7126;48.458;7.930;2022-12-17T04:08:27;-2.80;99.90
14099;DHT22;7126;48.458;7.930;2022-12-17T04:11:11;-2.80;99.90
14099;DHT22;7126;48.458;7.930;2022-12-17T04:13:55;-2.90;99.90
14099;DHT22;7126;48.458;7.930;2022-12-17T04:16:40;-2.90;99.90
14099;DHT22;7126;48.458;7.930;2022-12-17T04:19:24;-3.10;99.90
14099;DHT22;7126;48.458;7.930;2022-12-17T04:22:08;-3.10;99.90
14099;DHT22;7126;48.458;7.930;2022-12-17T04:24:52;-3.10;99.90
14099;DHT22;7126;48.458;7.930;2022-12-17T04:27:36;-3.10;99.90
14099;DHT22;7126;48.458;7.930;2022-12-17T04:30:20;-3.10;99.90
14099;DHT22;7126;48.458;7.930;2022-12-17T04:33:04;-3.00;99.90
14099;DHT22;7126;48.458;7.930;2022-12-17T04:35:48;-3.00;99.90
14099;DHT22;7126;48.458;7.930;2022-12-17T04:38:32;-3.30;99.90
14099;DHT22;7126;48.458;7.930;2022-12-17T04:41:17;-3.30;99.90
14099;DHT22;7126;48.458;7.930;2022-12-17T04:44:01;-3.30;99.90
14099;DHT22;7126;48.458;7.930;2022-12-17T04:46:45;-3.40;99.90
14099;DHT22;7126;48.458;7.930;2022-12-17T04:49:29;-3.40;99.90
14099;DHT22;7126;48.458;7.930;2022-12-17T04:52:13;-3.30;99.90
14099;DHT22;7126;48.458;7.930;2022-12-17T04:54:57;-3.50;99.90
14099;DHT22;7126;48.458;7.930;2022-12-17T04:57:41;-3.50;99.90
14099;DHT22;7126;48.458;7.930;2022-12-17T05:00:25;-3.40;99.90
14099;DHT22;7126;48.458;7.930;2022-12-17T05:03:11;-3.40;99.90
14099;DHT22;7126;48.458;7.930;2022-12-17T05:05:56;-3.50;99.90
14099;DHT22;7126;48.458;7.930;2022-12-17T05:08:40;-3.50;99.90
14099;DHT22;7126;48.458;7.930;2022-12-17T05:11:24;-3.50;99.90
14099;DHT22;7126;48.458;7.930;2022-12-17T05:14:08;-3.60;99.90
14099;DHT22;7126;48.458;7.930;2022-12-17T05:16:53;-3.70;99.90
14099;DHT22;7126;48.458;7.930;2022-12-17T05:19:37;-3.70;99.90
14099;DHT22;7126;48.458;7.930;2022-12-17T05:22:21;-3.80;99.90
14099;DHT22;7126;48.458;7.930;2022-12-17T05:25:05;-3.80;99.90
14099;DHT22;7126;48.458;7.930;2022-12-17T05:27:49;-3.70;99.90
14099;DHT22;7126;48.458;7.930;2022-12-17T05:30:33;-3.70;99.90
14099;DHT22;7126;48.458;7.930;2022-12-17T05:33:17;-3.70;99.90
14099;DHT22;7126;48.458;7.930;2022-12-17T05:36:03;-3.80;99.90
14099;DHT22;7126;48.458;7.930;2022-12-17T05:38:48;-4.00;99.90
14099;DHT22;7126;48.458;7.930;2022-12-17T05:41:33;-4.20;99.90
14099;DHT22;7126;48.458;7.930;2022-12-17T05:44:18;-4.30;99.90
14099;DHT22;7126;48.458;7.930;2022-12-17T05:47:02;-4.40;99.90
14099;DHT22;7126;48.458;7.930;2022-12-17T05:49:46;-4.50;99.90
14099;DHT22;7126;48.458;7.930;2022-12-17T05:52:30;-4.50;99.90
14099;DHT22;7126;48.458;7.930;2022-12-17T05:55:14;-4.60;99.90
14099;DHT22;7126;48.458;7.930;2022-12-17T05:58:07;-4.60;99.90
14099;DHT22;7126;48.458;7.930;2022-12-17T06:01:00;-4.60;99.90
14099;DHT22;7126;48.458;7.930;2022-12-17T06:03:44;-4.70;99.90
14099;DHT22;7126;48.458;7.930;2022-12-17T06:06:29;-4.80;99.90
14099;DHT22;7126;48.458;7.930;2022-12-17T06:09:13;-4.90;99.90
14099;DHT22;7126;48.458;7.930;2022-12-17T06:11:57;-5.00;99.90
14099;DHT22;7126;48.458;7.930;2022-12-17T06:14:41;-5.00;99.90
14099;DHT22;7126;48.458;7.930;2022-12-17T06:17:25;-5.00;99.90
14099;DHT22;7126;48.458;7.930;2022-12-17T06:20:09;-4.90;99.90
14099;DHT22;7126;48.458;7.930;2022-12-17T06:23:06;-4.90;99.90
14099;DHT22;7126;48.458;7.930;2022-12-17T06:25:57;-5.00;99.90
14099;DHT22;7126;48.458;7.930;2022-12-17T06:28:42;-4.90;99.90
14099;DHT22;7126;48.458;7.930;2022-12-17T06:31:26;-4.80;99.90
14099;DHT22;7126;48.458;7.930;2022-12-17T06:34:10;-4.70;99.90
14099;DHT22;7126;48.458;7.930;2022-12-17T06:36:55;-4.60;99.90
14099;DHT22;7126;48.458;7.930;2022-12-17T06:39:39;-4.60;99.90
14099;DHT22;7126;48.458;7.930;2022-12-17T06:42:23;-4.50;99.90
14099;DHT22;7126;48.458;7.930;2022-12-17T06:45:07;-4.60;99.90
14099;DHT22;7126;48.458;7.930;2022-12-17T06:47:51;-4.50;99.90
14099;DHT22;7126;48.458;7.930;2022-12-17T06:50:36;-4.40;99.90
14099;DHT22;7126;48.458;7.930;2022-12-17T06:53:20;-4.40;99.90
14099;DHT22;7126;48.458;7.930;2022-12-17T06:56:04;-4.30;99.90
14099;DHT22;7126;48.458;7.930;2022-12-17T06:58:48;-4.40;99.90
14099;DHT22;7126;48.458;7.930;2022-12-17T07:01:32;-4.40;99.90
14099;DHT22;7126;48.458;7.930;2022-12-17T07:04:16;-4.50;99.90
14099;DHT22;7126;48.458;7.930;2022-12-17T07:07:00;-4.60;99.90
14099;DHT22;7126;48.458;7.930;2022-12-17T07:09:44;-4.80;99.90
14099;DHT22;7126;48.458;7.930;2022-12-17T07:12:28;-4.90;99.90
14099;DHT22;7126;48.458;7.930;2022-12-17T07:15:12;-4.90;99.90
14099;DHT22;7126;48.458;7.930;2022-12-17T07:18:02;-4.90;99.90
14099;DHT22;7126;48.458;7.930;2022-12-17T07:20:47;-4.80;99.90
14099;DHT22;7126;48.458;7.930;2022-12-17T07:23:32;-4.60;99.90
14099;DHT22;7126;48.458;7.930;2022-12-17T07:26:17;-4.50;99.90
14099;DHT22;7126;48.458;7.930;2022-12-17T07:29:01;-4.50;99.90
14099;DHT22;7126;48.458;7.930;2022-12-17T07:31:45;-4.40;99.90
14099;DHT22;7126;48.458;7.930;2022-12-17T07:34:29;-4.40;99.90
14099;DHT22;7126;48.458;7.930;2022-12-17T07:37:13;-4.30;99.90
14099;DHT22;7126;48.458;7.930;2022-12-17T07:39:57;-4.20;99.90
14099;DHT22;7126;48.458;7.930;2022-12-17T07:42:41;-4.40;99.90
14099;DHT22;7126;48.458;7.930;2022-12-17T07:45:25;-4.50;99.90
14099;DHT22;7126;48.458;7.930;2022-12-17T07:48:09;-4.40;99.90
14099;DHT22;7126;48.458;7.930;2022-12-17T07:50:53;-4.40;99.90
14099;DHT22;7126;48.458;7.930;2022-12-17T07:53:37;-4.30;99.90
14099;DHT22;7126;48.458;7.930;2022-12-17T07:56:21;-4.20;99.90
14099;DHT22;7126;48.458;7.930;2022-12-17T07:59:05;-3.90;99.90
14099;DHT22;7126;48.458;7.930;2022-12-17T08:01:49;-3.90;99.90
14099;DHT22;7126;48.458;7.930;2022-12-17T08:04:34;-3.90;99.90
14099;DHT22;7126;48.458;7.930;2022-12-17T08:07:17;-3.90;99.90
14099;DHT22;7126;48.458;7.930;2022-12-17T08:10:02;-3.90;99.90
14099;DHT22;7126;48.458;7.930;2022-12-17T08:12:57;-4.00;99.90
14099;DHT22;7126;48.458;7.930;2022-12-17T08:15:41;-4.10;99.90
14099;DHT22;7126;48.458;7.930;2022-12-17T08:18:25;-4.10;99.90
14099;DHT22;7126;48.458;7.930;2022-12-17T08:21:10;-4.10;99.90
14099;DHT22;7126;48.458;7.930;2022-12-17T08:23:54;-4.10;99.90
14099;DHT22;7126;48.458;7.930;2022-12-17T08:26:38;-4.00;99.90
14099;DHT22;7126;48.458;7.930;2022-12-17T08:29:22;-4.10;99.90
14099;DHT22;7126;48.458;7.930;2022-12-17T08:32:06;-4.10;99.90
14099;DHT22;7126;48.458;7.930;2022-12-17T08:34:50;-4.00;99.90
14099;DHT22;7126;48.458;7.930;2022-12-17T08:37:34;-3.80;99.90
14099;DHT22;7126;48.458;7.930;2022-12-17T08:40:18;-3.70;99.90
14099;DHT22;7126;48.458;7.930;2022-12-17T08:43:02;-3.50;99.90
14099;DHT22;7126;48.458;7.930;2022-12-17T08:45:47;-3.40;99.90
14099;DHT22;7126;48.458;7.930;2022-12-17T08:48:31;-3.50;99.90
14099;DHT22;7126;48.458;7.930;2022-12-17T08:51:15;-3.70;99.90
14099;DHT22;7126;48.458;7.930;2022-12-17T08:54:00;-3.80;99.90
14099;DHT22;7126;48.458;7.930;2022-12-17T08:56:43;-3.70;99.90
14099;DHT22;7126;48.458;7.930;2022-12-17T08:59:28;-3.70;99.90
14099;DHT22;7126;48.458;7.930;2022-12-17T09:02:12;-3.60;99.90
14099;DHT22;7126;48.458;7.930;2022-12-17T09:04:56;-3.40;99.90
14099;DHT22;7126;48.458;7.930;2022-12-17T09:07:40;-3.40;99.90
14099;DHT22;7126;48.458;7.930;2022-12-17T09:10:24;-3.40;99.90
14099;DHT22;7126;48.458;7.930;2022-12-17T09:13:08;-3.30;99.90
14099;DHT22;7126;48.458;7.930;2022-12-17T09:15:53;-3.20;99.90
14099;DHT22;7126;48.458;7.930;2022-12-17T09:18:37;-3.10;99.90
14099;DHT22;7126;48.458;7.930;2022-12-17T09:21:22;-3.10;99.90
14099;DHT22;7126;48.458;7.930;2022-12-17T09:24:07;-3.10;99.90
14099;DHT22;7126;48.458;7.930;2022-12-17T09:26:52;-2.90;99.90
14099;DHT22;7126;48.458;7.930;2022-12-17T09:29:53;-3.00;99.90
14099;DHT22;7126;48.458;7.930;2022-12-17T09:32:37;-2.90;99.90
14099;DHT22;7126;48.458;7.930;2022-12-17T09:35:21;-2.80;99.90
14099;DHT22;7126;48.458;7.930;2022-12-17T09:38:05;-2.60;99.90
14099;DHT22;7126;48.458;7.930;2022-12-17T09:40:50;-2.50;99.90
14099;DHT22;7126;48.458;7.930;2022-12-17T09:43:50;-2.30;99.90
14099;DHT22;7126;48.458;7.930;2022-12-17T09:49:33;-2.10;99.90
14099;DHT22;7126;48.458;7.930;2022-12-17T09:52:32;-2.10;99.90
14099;DHT22;7126;48.458;7.930;2022-12-17T09:55:31;-2.10;99.90
14099;DHT22;7126;48.458;7.930;2022-12-17T09:58:22;-2.10;99.90
14099;DHT22;7126;48.458;7.930;2022-12-17T10:04:01;-2.10;99.90
14099;DHT22;7126;48.458;7.930;2022-12-17T10:06:46;-2.20;99.90
14099;DHT22;7126;48.458;7.930;2022-12-17T10:09:30;-2.20;99.90
14099;DHT22;7126;48.458;7.930;2022-12-17T10:12:17;-2.20;99.90
14099;DHT22;7126;48.458;7.930;2022-12-17T10:15:02;-2.20;99.90
14099;DHT22;7126;48.458;7.930;2022-12-17T10:17:47;-2.50;99.90
14099;DHT22;7126;48.458;7.930;2022-12-17T10:20:55;-2.50;99.90
14099;DHT22;7126;48.458;7.930;2022-12-17T10:23:40;-2.40;99.90
14099;DHT22;7126;48.458;7.930;2022-12-17T10:26:27;-2.30;99.90
14099;DHT22;7126;48.458;7.930;2022-12-17T10:29:14;-2.20;99.90
14099;DHT22;7126;48.458;7.930;2022-12-17T10:32:26;-2.20;99.90
14099;DHT22;7126;48.458;7.930;2022-12-17T10:35:19;-2.30;99.90
14099;DHT22;7126;48.458;7.930;2022-12-17T10:38:26;-2.30;99.90
14099;DHT22;7126;48.458;7.930;2022-12-17T10:41:25;-2.30;99.90
14099;DHT22;7126;48.458;7.930;2022-12-17T10:44:34;-2.20;99.90
14099;DHT22;7126;48.458;7.930;2022-12-17T10:47:21;-2.20;99.90
14099;DHT22;7126;48.458;7.930;2022-12-17T10:50:15;-2.30;99.90
14099;DHT22;7126;48.458;7.930;2022-12-17T10:53:01;-2.30;99.90
14099;DHT22;7126;48.458;7.930;2022-12-17T10:55:53;-2.20;99.90
14099;DHT22;7126;48.458;7.930;2022-12-17T10:58:44;-2.20;99.90
14099;DHT22;7126;48.458;7.930;2022-12-17T11:01:29;-2.30;99.90
14099;DHT22;7126;48.458;7.930;2022-12-17T11:04:29;-2.30;99.90
14099;DHT22;7126;48.458;7.930;2022-12-17T11:07:38;-2.40;99.90
14099;DHT22;7126;48.458;7.930;2022-12-17T11:10:44;-2.30;99.90
14099;DHT22;7126;48.458;7.930;2022-12-17T11:13:32;-2.40;99.90
14099;DHT22;7126;48.458;7.930;2022-12-17T11:16:25;-2.40;99.90
14099;DHT22;7126;48.458;7.930;2022-12-17T11:21:57;-2.50;99.90
14099;DHT22;7126;48.458;7.930;2022-12-17T11:24:55;-2.50;99.90
14099;DHT22;7126;48.458;7.930;2022-12-17T11:27:44;-2.60;99.90
14099;DHT22;7126;48.458;7.930;2022-12-17T11:30:57;-2.60;99.90
14099;DHT22;7126;48.458;7.930;2022-12-17T11:37:12;-2.50;99.90
14099;DHT22;7126;48.458;7.930;2022-12-17T11:42:59;-2.40;99.90
14099;DHT22;7126;48.458;7.930;2022-12-17T11:46:18;-2.40;99.90
14099;DHT22;7126;48.458;7.930;2022-12-17T11:49:32;-2.40;99.90
14099;DHT22;7126;48.458;7.930;2022-12-17T11:52:26;-2.40;99.90
14099;DHT22;7126;48.458;7.930;2022-12-17T11:55:19;-2.30;99.90
14099;DHT22;7126;48.458;7.930;2022-12-17T11:58:10;-2.30;99.90
14099;DHT22;7126;48.458;7.930;2022-12-17T12:04:09;-2.40;99.90
14099;DHT22;7126;48.458;7.930;2022-12-17T12:09:50;-2.40;99.90
14099;DHT22;7126;48.458;7.930;2022-12-17T12:22:24;-2.50;99.90
14099;DHT22;7126;48.458;7.930;2022-12-17T12:28:34;-2.60;99.90
14099;DHT22;7126;48.458;7.930;2022-12-17T12:31:48;-2.60;99.90
14099;DHT22;7126;48.458;7.930;2022-12-17T12:34:37;-2.60;99.90
14099;DHT22;7126;48.458;7.930;2022-12-17T12:37:22;-2.60;99.90
14099;DHT22;7126;48.458;7.930;2022-12-17T12:43:28;-2.60;99.90
14099;DHT22;7126;48.458;7.930;2022-12-17T12:46:45;-2.70;99.90
14099;DHT22;7126;48.458;7.930;2022-12-17T12:49:37;-2.60;99.90
14099;DHT22;7126;48.458;7.930;2022-12-17T12:52:25;-2.60;99.90
14099;DHT22;7126;48.458;7.930;2022-12-17T12:55:11;-2.60;99.90
14099;DHT22;7126;48.458;7.930;2022-12-17T12:57:58;-2.60;99.90
14099;DHT22;7126;48.458;7.930;2022-12-17T13:06:50;-2.90;99.90
14099;DHT22;7126;48.458;7.930;2022-12-17T13:19:42;-2.60;99.90
14099;DHT22;7126;48.458;7.930;2022-12-17T13:24:44;-2.60;99.90
14099;DHT22;7126;48.458;7.930;2022-12-17T13:29:55;-2.70;99.90
14099;DHT22;7126;48.458;7.930;2022-12-17T13:35:36;-2.90;99.90
14099;DHT22;7126;48.458;7.930;2022-12-17T13:41:12;-3.00;99.90
14099;DHT22;7126;48.458;7.930;2022-12-17T13:43:43;-2.90;99.90
14099;DHT22;7126;48.458;7.930;2022-12-17T13:46:27;-2.90;99.90
14099;DHT22;7126;48.458;7.930;2022-12-17T13:51:22;-2.80;99.90
14099;DHT22;7126;48.458;7.930;2022-12-17T13:53:56;-2.80;99.90
14099;DHT22;7126;48.458;7.930;2022-12-17T13:56:24;-2.80;99.90
14099;DHT22;7126;48.458;7.930;2022-12-17T13:58:52;-2.80;99.90
14099;DHT22;7126;48.458;7.930;2022-12-17T14:01:17;-2.80;99.90
14099;DHT22;7126;48.458;7.930;2022-12-17T14:03:50;-2.90;99.90
14099;DHT22;7126;48.458;7.930;2022-12-17T14:06:16;-2.80;99.90
14099;DHT22;7126;48.458;7.930;2022-12-17T14:08:42;-2.90;99.90
14099;DHT22;7126;48.458;7.930;2022-12-17T14:11:10;-3.00;99.90
14099;DHT22;7126;48.458;7.930;2022-12-17T14:13:55;-2.90;99.90
14099;DHT22;7126;48.458;7.930;2022-12-17T14:16:21;-2.90;99.90
14099;DHT22;7126;48.458;7.930;2022-12-17T14:18:57;-3.00;99.90
14099;DHT22;7126;48.458;7.930;2022-12-17T14:21:25;-3.10;99.90
14099;DHT22;7126;48.458;7.930;2022-12-17T14:23:51;-3.00;99.90
14099;DHT22;7126;48.458;7.930;2022-12-17T14:26:18;-2.90;99.90
14099;DHT22;7126;48.458;7.930;2022-12-17T14:28:48;-2.90;99.90
14099;DHT22;7126;48.458;7.930;2022-12-17T14:31:20;-2.90;99.90
14099;DHT22;7126;48.458;7.930;2022-12-17T14:33:47;-2.90;99.90
14099;DHT22;7126;48.458;7.930;2022-12-17T14:36:23;-3.00;99.90
14099;DHT22;7126;48.458;7.930;2022-12-17T14:38:57;-3.00;99.90
14099;DHT22;7126;48.458;7.930;2022-12-17T14:41:24;-3.10;99.90
14099;DHT22;7126;48.458;7.930;2022-12-17T14:44:18;-3.10;99.90
14099;DHT22;7126;48.458;7.930;2022-12-17T14:46:44;-3.20;99.90
14099;DHT22;7126;48.458;7.930;2022-12-17T14:49:18;-3.20;99.90
14099;DHT22;7126;48.458;7.930;2022-12-17T14:51:44;-3.30;99.90
14099;DHT22;7126;48.458;7.930;2022-12-17T14:56:41;-3.20;99.90
14099;DHT22;7126;48.458;7.930;2022-12-17T14:59:39;-3.20;99.90
14099;DHT22;7126;48.458;7.930;2022-12-17T15:04:35;-3.10;99.90
14099;DHT22;7126;48.458;7.930;2022-12-17T15:07:02;-3.20;99.90
14099;DHT22;7126;48.458;7.930;2022-12-17T15:09:28;-3.30;99.90
14099;DHT22;7126;48.458;7.930;2022-12-17T15:11:54;-3.30;99.90
14099;DHT22;7126;48.458;7.930;2022-12-17T15:14:20;-3.30;99.90
14099;DHT22;7126;48.458;7.930;2022-12-17T15:16:45;-3.30;99.90
14099;DHT22;7126;48.458;7.930;2022-12-17T15:19:11;-3.30;99.90
14099;DHT22;7126;48.458;7.930;2022-12-17T15:21:36;-3.40;99.90
14099;DHT22;7126;48.458;7.930;2022-12-17T15:24:02;-3.40;99.90
14099;DHT22;7126;48.458;7.930;2022-12-17T15:26:28;-3.40;99.90
14099;DHT22;7126;48.458;7.930;2022-12-17T15:28:53;-3.40;99.90
14099;DHT22;7126;48.458;7.930;2022-12-17T15:31:19;-3.40;99.90
14099;DHT22;7126;48.458;7.930;2022-12-17T15:33:44;-3.30;99.90
14099;DHT22;7126;48.458;7.930;2022-12-17T15:36:11;-3.30;99.90
14099;DHT22;7126;48.458;7.930;2022-12-17T15:38:36;-3.30;99.90
14099;DHT22;7126;48.458;7.930;2022-12-17T15:41:04;-3.30;99.90
14099;DHT22;7126;48.458;7.930;2022-12-17T15:43:50;-3.30;99.90
14099;DHT22;7126;48.458;7.930;2022-12-17T15:46:16;-3.40;99.90
14099;DHT22;7126;48.458;7.930;2022-12-17T15:48:42;-3.40;99.90
14099;DHT22;7126;48.458;7.930;2022-12-17T15:51:08;-3.40;99.90
14099;DHT22;7126;48.458;7.930;2022-12-17T15:53:33;-3.40;99.90
14099;DHT22;7126;48.458;7.930;2022-12-17T15:56:00;-3.50;99.90
14099;DHT22;7126;48.458;7.930;2022-12-17T15:58:26;-3.60;99.90
14099;DHT22;7126;48.458;7.930;2022-12-17T16:00:52;-3.60;99.90
14099;DHT22;7126;48.458;7.930;2022-12-17T16:03:17;-3.50;99.90
14099;DHT22;7126;48.458;7.930;2022-12-17T16:05:43;-3.60;99.90
14099;DHT22;7126;48.458;7.930;2022-12-17T16:08:09;-3.70;99.90
14099;DHT22;7126;48.458;7.930;2022-12-17T16:10:35;-3.80;99.90
14099;DHT22;7126;48.458;7.930;2022-12-17T16:13:01;-3.80;99.90
14099;DHT22;7126;48.458;7.930;2022-12-17T16:15:26;-3.90;99.90
14099;DHT22;7126;48.458;7.930;2022-12-17T16:17:52;-3.80;99.90
14099;DHT22;7126;48.458;7.930;2022-12-17T16:20:17;-3.70;99.90
14099;DHT22;7126;48.458;7.930;2022-12-17T16:22:43;-3.70;99.90
14099;DHT22;7126;48.458;7.930;2022-12-17T16:25:09;-3.60;99.90
14099;DHT22;7126;48.458;7.930;2022-12-17T16:27:34;-3.50;99.90
14099;DHT22;7126;48.458;7.930;2022-12-17T16:30:00;-3.50;99.90
14099;DHT22;7126;48.458;7.930;2022-12-17T16:32:27;-3.50;99.90
14099;DHT22;7126;48.458;7.930;2022-12-17T16:34:53;-3.50;99.90
14099;DHT22;7126;48.458;7.930;2022-12-17T16:37:19;-3.50;99.90
14099;DHT22;7126;48.458;7.930;2022-12-17T16:39:44;-3.50;99.90
14099;DHT22;7126;48.458;7.930;2022-12-17T16:42:10;-3.40;99.90
14099;DHT22;7126;48.458;7.930;2022-12-17T16:44:36;-3.40;99.90
14099;DHT22;7126;48.458;7.930;2022-12-17T16:47:01;-3.40;99.90
14099;DHT22;7126;48.458;7.930;2022-12-17T16:49:27;-3.30;99.90
14099;DHT22;7126;48.458;7.930;2022-12-17T16:51:54;-3.20;99.90
14099;DHT22;7126;48.458;7.930;2022-12-17T16:54:21;-3.20;99.90
14099;DHT22;7126;48.458;7.930;2022-12-17T16:56:47;-3.20;99.90
14099;DHT22;7126;48.458;7.930;2022-12-17T16:59:14;-3.10;99.90
14099;DHT22;7126;48.458;7.930;2022-12-17T17:01:42;-3.20;99.90
14099;DHT22;7126;48.458;7.930;2022-12-17T17:04:09;-3.20;99.90
14099;DHT22;7126;48.458;7.930;2022-12-17T17:06:39;-3.20;99.90
14099;DHT22;7126;48.458;7.930;2022-12-17T17:09:06;-3.20;99.90
14099;DHT22;7126;48.458;7.930;2022-12-17T17:11:32;-3.40;99.90
14099;DHT22;7126;48.458;7.930;2022-12-17T17:13:57;-3.40;99.90
14099;DHT22;7126;48.458;7.930;2022-12-17T17:16:24;-3.40;99.90
14099;DHT22;7126;48.458;7.930;2022-12-17T17:18:50;-3.30;99.90
14099;DHT22;7126;48.458;7.930;2022-12-17T17:21:24;-3.30;99.90
14099;DHT22;7126;48.458;7.930;2022-12-17T17:23:59;-3.20;99.90
14099;DHT22;7126;48.458;7.930;2022-12-17T17:26:27;-3.10;99.90
14099;DHT22;7126;48.458;7.930;2022-12-17T17:28:53;-3.20;99.90
14099;DHT22;7126;48.458;7.930;2022-12-17T17:31:19;-3.20;99.90
14099;DHT22;7126;48.458;7.930;2022-12-17T17:33:46;-3.20;99.90
14099;DHT22;7126;48.458;7.930;2022-12-17T17:36:16;-3.20;99.90
14099;DHT22;7126;48.458;7.930;2022-12-17T17:38:42;-3.30;99.90
14099;DHT22;7126;48.458;7.930;2022-12-17T17:41:10;-3.40;99.90
14099;DHT22;7126;48.458;7.930;2022-12-17T17:43:37;-3.30;99.90
14099;DHT22;7126;48.458;7.930;2022-12-17T17:46:04;-3.30;99.90
14099;DHT22;7126;48.458;7.930;2022-12-17T17:48:31;-3.20;99.90
14099;DHT22;7126;48.458;7.930;2022-12-17T17:51:11;-3.10;99.90
14099;DHT22;7126;48.458;7.930;2022-12-17T17:53:37;-3.00;99.90
14099;DHT22;7126;48.458;7.930;2022-12-17T17:56:14;-2.90;99.90
14099;DHT22;7126;48.458;7.930;2022-12-17T17:58:45;-2.80;99.90
14099;DHT22;7126;48.458;7.930;2022-12-17T18:01:16;-2.80;99.90
14099;DHT22;7126;48.458;7.930;2022-12-17T18:03:42;-2.80;99.90
14099;DHT22;7126;48.458;7.930;2022-12-17T18:06:09;-2.80;99.90
14099;DHT22;7126;48.458;7.930;2022-12-17T18:08:35;-2.80;99.90
14099;DHT22;7126;48.458;7.930;2022-12-17T18:11:02;-2.80;99.90
14099;DHT22;7126;48.458;7.930;2022-12-17T18:13:28;-2.80;99.90
14099;DHT22;7126;48.458;7.930;2022-12-17T18:16:12;-2.80;99.90
14099;DHT22;7126;48.458;7.930;2022-12-17T18:18:38;-2.80;99.90
14099;DHT22;7126;48.458;7.930;2022-12-17T18:21:09;-2.80;99.90
14099;DHT22;7126;48.458;7.930;2022-12-17T18:23:35;-2.90;99.90
14099;DHT22;7126;48.458;7.930;2022-12-17T18:26:08;-2.80;99.90
14099;DHT22;7126;48.458;7.930;2022-12-17T18:28:35;-2.80;99.90